Time;durP1;ratioP1;P1;durP2;ratioP2;P2;SDS_P1;SDS_P2;PMS_P1;PMS_P2;Temp;Humidity;BMP_temperature;BMP_pressure;BME280_temperature;BME280_humidity;BME280_pressure;Samples;Min_cycle;Max_cycle;Signal;HPM_P1;HPM_P2
2023/12/08 00:02:04;;;;;;;10.85;7.68;;;;;;;0.80;80.30;94754.22;5070440;28;20023;-75
2023/12/08 00:04:29;;;;;;;10.35;7.10;;;;;;;1.01;80.59;94770.34;5068983;28;20036;-75
2023/12/08 00:06:55;;;;;;;11.48;7.50;;;;;;;0.97;80.70;94761.13;5089256;28;20032;-75
2023/12/08 00:09:20;;;;;;;10.10;7.15;;;;;;;1.00;80.95;94767.84;5087107;28;20036;-75
2023/12/08 00:11:46;;;;;;;13.52;7.18;;;;;;;1.09;80.41;94777.66;5091120;28;20016;-75
2023/12/08 00:14:11;;;;;;;10.48;7.53;;;;;;;1.00;80.20;94762.72;5087407;28;20040;-75
2023/12/08 00:16:37;;;;;;;9.35;6.90;;;;;;;0.99;80.52;94768.75;5057131;28;20305;-75
2023/12/08 00:19:02;;;;;;;11.25;6.97;;;;;;;1.02;80.44;94768.59;5088755;28;20039;-75
2023/12/08 00:21:27;;;;;;;9.88;6.88;;;;;;;0.93;80.49;94779.25;5069854;28;20020;-75
2023/12/08 00:23:53;;;;;;;10.40;7.15;;;;;;;1.06;79.40;94781.19;5119538;27;20382;-75
2023/12/08 00:26:18;;;;;;;11.13;7.53;;;;;;;0.64;80.15;94749.00;5086025;28;20409;-75
2023/12/08 00:28:44;;;;;;;10.50;6.88;;;;;;;1.04;80.10;94782.16;5070392;28;20036;-75
2023/12/08 00:31:10;;;;;;;10.52;6.68;;;;;;;1.03;79.39;94781.34;5090570;28;20028;-75
2023/12/08 00:33:36;;;;;;;12.02;7.70;;;;;;;1.19;79.74;94775.50;5054696;28;20047;-75
2023/12/08 00:36:23;;;;;;;10.57;7.35;;;;;;;1.06;79.51;94777.81;5073616;28;20437;-75
2023/12/08 00:38:49;;;;;;;12.13;7.78;;;;;;;1.00;79.51;94778.06;5090960;28;20032;-75
2023/12/08 00:41:14;;;;;;;11.25;7.80;;;;;;;0.95;79.82;94767.22;5111722;28;20028;-75
2023/12/08 00:43:40;;;;;;;10.57;7.20;;;;;;;0.79;80.07;94767.94;5099587;28;20056;-75
2023/12/08 00:46:05;;;;;;;9.68;6.60;;;;;;;0.84;80.43;94760.88;5073436;28;20036;-75
2023/12/08 00:48:31;;;;;;;9.77;6.40;;;;;;;0.98;79.52;94775.59;5106543;28;20031;-75
2023/12/08 00:50:56;;;;;;;12.30;7.57;;;;;;;0.92;80.00;94764.78;5090161;28;20047;-75
2023/12/08 00:53:21;;;;;;;9.52;6.75;;;;;;;1.01;80.14;94759.28;5089282;28;20024;-75
2023/12/08 00:55:47;;;;;;;10.52;7.18;;;;;;;1.09;79.63;94764.88;5089316;28;20089;-75
2023/12/08 00:58:14;;;;;;;11.13;7.53;;;;;;;1.05;79.33;94771.84;5073271;28;20081;-75
2023/12/08 01:00:40;;;;;;;10.13;7.35;;;;;;;0.94;80.22;94775.78;5089170;28;20123;-76
2023/12/08 01:03:05;;;;;;;11.45;7.85;;;;;;;0.81;80.39;94778.09;5073298;28;20031;-75
2023/12/08 01:05:30;;;;;;;9.80;6.90;;;;;;;0.91;80.62;94770.81;5073386;28;20081;-75
2023/12/08 01:07:56;;;;;;;10.82;6.85;;;;;;;0.81;80.75;94786.59;5089960;28;20036;-75
2023/12/08 01:10:21;;;;;;;10.43;6.75;;;;;;;0.83;81.07;94777.09;5088551;28;20073;-75
2023/12/08 01:12:47;;;;;;;11.07;7.28;;;;;;;0.91;80.53;94774.19;5090180;28;20413;-75
2023/12/08 01:15:13;;;;;;;12.48;8.50;;;;;;;0.91;80.22;94779.31;5090066;28;20468;-75
2023/12/08 01:17:38;;;;;;;19.35;11.18;;;;;;;0.95;79.84;94782.56;5072999;28;20028;-75
2023/12/08 01:20:05;;;;;;;18.08;12.23;;;;;;;0.98;79.51;94787.56;5093500;28;20462;-75
2023/12/08 01:22:30;;;;;;;21.58;14.18;;;;;;;0.92;79.90;94791.22;5056410;28;20116;-75
2023/12/08 01:24:56;;;;;;;25.25;15.73;;;;;;;0.92;79.39;94787.81;5101135;28;20480;-75
2023/12/08 01:27:21;;;;;;;19.83;13.93;;;;;;;0.93;78.93;94780.09;5101872;28;20043;-75
2023/12/08 01:29:47;;;;;;;21.85;13.80;;;;;;;1.01;78.46;94783.13;5089690;28;20051;-75
2023/12/08 01:32:12;;;;;;;20.58;13.98;;;;;;;0.97;78.47;94773.09;5107766;28;20047;-75
2023/12/08 01:34:38;;;;;;;14.48;10.30;;;;;;;1.07;78.57;94777.72;5089530;28;20032;-75
2023/12/08 01:37:03;;;;;;;15.32;10.50;;;;;;;0.97;78.68;94781.59;5105142;28;20035;-74
2023/12/08 01:39:29;;;;;;;12.20;8.57;;;;;;;0.96;78.63;94776.56;5109976;28;20093;-75
2023/12/08 01:41:54;;;;;;;11.75;9.13;;;;;;;0.99;77.81;94771.31;5103811;28;20028;-74
2023/12/08 01:44:20;;;;;;;11.80;7.80;;;;;;;0.82;78.36;94772.06;5091725;28;20077;-75
2023/12/08 01:46:45;;;;;;;10.95;7.53;;;;;;;0.85;78.47;94782.16;5094950;28;20036;-75
2023/12/08 01:49:11;;;;;;;9.23;6.65;;;;;;;0.94;77.84;94780.91;5093794;28;20028;-75
2023/12/08 01:51:37;;;;;;;11.10;6.88;;;;;;;0.87;78.09;94782.94;5072267;28;20036;-75
2023/12/08 01:54:03;;;;;;;9.18;7.10;;;;;;;0.99;77.25;94773.88;5090271;28;20479;-75
2023/12/08 01:56:29;;;;;;;9.38;6.95;;;;;;;0.96;77.36;94776.56;5073295;28;20029;-75
2023/12/08 01:58:54;;;;;;;10.20;7.10;;;;;;;0.95;77.55;94768.06;5073201;28;20035;-75
2023/12/08 02:01:19;;;;;;;12.75;8.15;;;;;;;0.79;77.74;94757.69;5095103;28;20037;-75
2023/12/08 02:03:48;;;;;;;13.05;8.02;;;;;;;0.84;77.83;94771.09;5074298;28;20521;-75
2023/12/08 02:06:14;;;;;;;9.25;6.97;;;;;;;0.79;77.73;94757.69;5073158;28;20055;-75
2023/12/08 02:08:39;;;;;;;11.18;7.45;;;;;;;0.92;77.79;94763.09;5058597;28;20036;-75
2023/12/08 02:11:05;;;;;;;10.88;7.45;;;;;;;0.81;77.46;94778.94;5076028;28;20032;-74
2023/12/08 02:13:31;;;;;;;10.68;7.25;;;;;;;0.87;77.46;94780.38;5076360;28;20051;-75
2023/12/08 02:16:04;;;;;;;17.20;10.73;;;;;;;0.87;76.75;94791.44;5093160;28;20407;-75
2023/12/08 02:18:30;;;;;;;13.65;8.10;;;;;;;0.85;76.99;94790.66;5092916;28;20024;-75
2023/12/08 02:20:55;;;;;;;9.70;6.78;;;;;;;1.00;76.29;94785.75;5076182;28;20036;-75
2023/12/08 02:23:21;;;;;;;10.88;7.13;;;;;;;1.09;76.18;94788.72;5093092;28;20027;-75
2023/12/08 02:25:46;;;;;;;12.18;6.40;;;;;;;0.86;76.63;94794.91;5092947;28;20559;-74
2023/12/08 02:28:12;;;;;;;9.82;6.35;;;;;;;0.97;76.06;94791.00;5091553;28;20402;-75
2023/12/08 02:30:37;;;;;;;9.20;6.60;;;;;;;0.95;76.24;94793.66;5085199;28;20583;-75
2023/12/08 02:33:14;;;;;;;10.77;7.30;;;;;;;0.86;76.00;94779.56;5076072;28;20084;-75
2023/12/08 02:35:41;;;;;;;10.07;6.20;;;;;;;0.84;76.08;94801.81;5093156;28;20040;-75
2023/12/08 02:38:07;;;;;;;9.75;6.60;;;;;;;0.79;76.91;94798.63;5099454;28;20073;-75
2023/12/08 02:40:33;;;;;;;11.52;7.68;;;;;;;0.69;76.59;94779.47;5096102;28;20080;-75
2023/12/08 02:42:59;;;;;;;12.43;9.05;;;;;;;0.71;76.66;94790.47;5096206;28;20085;-75
2023/12/08 02:45:24;;;;;;;11.63;7.65;;;;;;;0.63;76.78;94777.19;5107044;28;20032;-75
2023/12/08 02:47:50;;;;;;;10.05;6.72;;;;;;;0.76;77.17;94798.75;5092559;28;20032;-75
2023/12/08 02:50:15;;;;;;;10.13;6.95;;;;;;;0.65;77.46;94791.56;5094233;28;20047;-74
2023/12/08 02:52:40;;;;;;;9.75;6.18;;;;;;;0.76;77.26;94788.53;5092532;28;20406;-75
2023/12/08 02:55:06;;;;;;;9.13;5.75;;;;;;;0.76;76.96;94790.25;5081388;28;20032;-75
2023/12/08 02:57:32;;;;;;;8.77;5.65;;;;;;;0.88;77.17;94792.25;5073429;28;20098;-75
2023/12/08 02:59:57;;;;;;;10.00;6.05;;;;;;;0.69;76.76;94787.13;5072504;28;20036;-75
2023/12/08 03:02:22;;;;;;;9.80;6.78;;;;;;;0.75;77.29;94783.47;5073480;28;20090;-75
2023/12/08 03:04:48;;;;;;;9.63;6.57;;;;;;;0.84;76.41;94786.47;5102872;27;20089;-75
2023/12/08 03:07:13;;;;;;;9.73;6.47;;;;;;;0.84;76.37;94776.22;5075270;28;20093;-73
2023/12/08 03:09:39;;;;;;;9.98;6.97;;;;;;;0.87;75.58;94781.19;5075298;28;20075;-76
2023/12/08 03:12:04;;;;;;;9.77;6.60;;;;;;;0.88;76.11;94782.84;5082161;28;20040;-75
2023/12/08 03:14:30;;;;;;;12.50;7.55;;;;;;;0.70;76.34;94773.47;5091547;28;20101;-75
2023/12/08 03:16:55;;;;;;;11.75;7.28;;;;;;;0.79;77.21;94782.44;5107930;28;20455;-75
2023/12/08 03:19:21;;;;;;;10.70;6.68;;;;;;;0.76;76.58;94780.03;5112494;28;20031;-75
2023/12/08 03:21:46;;;;;;;9.75;6.38;;;;;;;0.78;75.89;94784.19;5108719;28;20031;-75
2023/12/08 03:24:11;;;;;;;9.40;6.07;;;;;;;0.81;76.76;94780.66;5094191;28;20024;-73
2023/12/08 03:26:38;;;;;;;8.48;5.78;;;;;;;0.88;76.17;94775.16;5091848;28;20410;-73
2023/12/08 03:29:03;;;;;;;8.30;5.85;;;;;;;0.65;75.86;94780.50;5090317;28;20093;-75
2023/12/08 03:31:32;;;;;;;8.57;5.72;;;;;;;0.69;75.37;94770.97;5092842;28;20032;-75
2023/12/08 03:33:57;;;;;;;7.65;5.07;;;;;;;0.67;76.34;94778.72;5091520;28;20032;-75
2023/12/08 03:36:23;;;;;;;8.50;5.57;;;;;;;0.62;77.36;94778.91;5091457;28;20040;-75
2023/12/08 03:38:48;;;;;;;9.93;6.82;;;;;;;0.40;76.40;94756.03;5091937;28;20077;-75
2023/12/08 03:41:13;;;;;;;10.23;6.00;;;;;;;0.51;76.08;94772.63;5090536;28;20028;-75
2023/12/08 03:43:39;;;;;;;8.15;6.13;;;;;;;0.74;76.06;94774.97;5091255;28;20027;-75
2023/12/08 03:46:05;;;;;;;9.63;6.30;;;;;;;0.53;76.22;94760.59;5092761;28;20089;-75
2023/12/08 03:48:30;;;;;;;9.10;5.72;;;;;;;0.56;76.49;94755.34;5056203;28;20028;-75
2023/12/08 03:50:56;;;;;;;7.80;5.28;;;;;;;0.64;76.60;94764.34;5091425;28;20032;-75
2023/12/08 03:53:21;;;;;;;10.77;5.60;;;;;;;0.64;76.16;94763.50;5091399;28;20054;-75
2023/12/08 03:55:47;;;;;;;8.52;6.00;;;;;;;0.58;76.18;94762.03;5099092;28;20137;-76
2023/12/08 03:58:12;;;;;;;8.93;6.00;;;;;;;0.54;76.37;94763.09;5094838;28;20437;-76
2023/12/08 04:00:37;;;;;;;8.70;6.10;;;;;;;0.48;76.37;94752.31;5076471;28;20039;-75
2023/12/08 04:03:06;;;;;;;10.27;5.90;;;;;;;0.57;76.08;94765.50;5090536;28;20031;-75
2023/12/08 04:05:31;;;;;;;8.13;5.57;;;;;;;0.32;77.07;94737.63;5090964;28;20114;-75
2023/12/08 04:07:57;;;;;;;9.30;6.03;;;;;;;0.36;76.55;94751.09;5073000;28;20028;-75
2023/12/08 04:10:22;;;;;;;9.07;5.60;;;;;;;0.38;77.02;94746.75;5091128;28;20043;-75
2023/12/08 04:12:48;;;;;;;8.30;5.60;;;;;;;0.49;76.35;94747.13;5100576;28;20042;-73
2023/12/08 04:15:14;;;;;;;21.48;12.48;;;;;;;0.56;76.79;94747.69;5112923;28;20028;-75
2023/12/08 04:17:39;;;;;;;9.98;6.10;;;;;;;0.46;76.53;94741.31;5091426;28;20101;-75
2023/12/08 04:20:05;;;;;;;9.15;6.22;;;;;;;0.51;76.15;94731.72;5073747;28;20494;-75
2023/12/08 04:22:31;;;;;;;14.55;9.05;;;;;;;0.75;76.02;94745.09;5093844;28;20040;-75
2023/12/08 04:24:57;;;;;;;10.35;6.30;;;;;;;0.40;76.29;94725.34;5088415;28;20436;-75
2023/12/08 04:27:22;;;;;;;10.73;7.38;;;;;;;0.51;76.08;94739.41;5089761;28;20447;-76
2023/12/08 04:29:48;;;;;;;11.02;6.70;;;;;;;0.40;76.05;94739.88;5089917;28;20040;-76
2023/12/08 04:32:13;;;;;;;12.25;8.60;;;;;;;0.40;76.65;94735.59;5091922;28;20517;-75
2023/12/08 04:34:38;;;;;;;10.05;7.35;;;;;;;0.62;75.96;94748.22;5073369;28;20397;-75
2023/12/08 04:37:04;;;;;;;11.18;7.68;;;;;;;0.67;76.19;94737.81;5090623;28;20035;-75
2023/12/08 04:39:29;;;;;;;8.98;6.00;;;;;;;0.62;75.60;94753.34;5090532;28;20103;-76
2023/12/08 04:41:55;;;;;;;7.95;6.32;;;;;;;0.37;76.09;94734.91;5091685;28;20068;-75
2023/12/08 04:44:20;;;;;;;8.85;5.55;;;;;;;0.51;75.65;94741.94;5098447;28;20062;-74
2023/12/08 04:46:46;;;;;;;9.30;6.13;;;;;;;0.59;75.83;94753.50;5097083;28;20386;-74
2023/12/08 04:49:11;;;;;;;7.45;6.20;;;;;;;0.66;75.46;94757.41;5090449;28;20434;-75
2023/12/08 04:51:40;;;;;;;8.20;5.82;;;;;;;0.50;75.49;94761.53;5091409;28;20414;-75
2023/12/08 04:54:05;;;;;;;8.80;6.00;;;;;;;0.46;75.61;94756.66;5110632;28;20500;-75
2023/12/08 04:56:31;;;;;;;8.40;6.03;;;;;;;0.61;75.75;94761.06;5076626;28;20088;-75
2023/12/08 04:58:56;;;;;;;9.65;5.82;;;;;;;0.58;75.68;94761.22;5091707;28;20036;-75
2023/12/08 05:01:22;;;;;;;9.30;6.30;;;;;;;0.60;74.73;94764.53;5109130;27;20071;-75
2023/12/08 05:03:47;;;;;;;9.23;6.68;;;;;;;0.42;75.27;94754.25;5086668;28;20434;-75
2023/12/08 05:06:13;;;;;;;8.35;5.97;;;;;;;0.27;75.57;94733.63;5077410;28;20512;-75
2023/12/08 05:08:38;;;;;;;7.93;5.55;;;;;;;0.64;74.80;94779.69;5080416;28;20036;-75
2023/12/08 05:11:04;;;;;;;11.02;6.75;;;;;;;0.51;75.49;94775.19;5069218;28;20085;-75
2023/12/08 05:13:29;;;;;;;10.43;5.95;;;;;;;0.52;75.52;94782.78;5084833;28;20501;-74
2023/12/08 05:15:55;;;;;;;8.77;6.93;;;;;;;0.76;75.15;94783.41;5087394;28;20036;-75
2023/12/08 05:18:20;;;;;;;11.57;7.72;;;;;;;0.66;75.50;94771.94;5084295;28;20107;-75
2023/12/08 05:20:46;;;;;;;13.02;7.60;;;;;;;0.76;75.08;94792.81;5087748;28;20032;-74
2023/12/08 05:23:12;;;;;;;15.65;8.43;;;;;;;0.69;75.22;94788.88;5083625;28;20472;-75
2023/12/08 05:25:38;;;;;;;10.43;6.63;;;;;;;0.72;74.62;94781.88;5086694;28;20036;-73
2023/12/08 05:28:03;;;;;;;13.15;7.60;;;;;;;0.59;75.40;94781.59;5085632;28;20063;-74
2023/12/08 05:30:29;;;;;;;10.50;6.45;;;;;;;0.56;74.69;94786.03;5085313;28;20398;-73
2023/12/08 05:32:54;;;;;;;8.77;5.93;;;;;;;0.69;75.12;94782.00;5070070;28;20036;-73
2023/12/08 05:35:20;;;;;;;11.70;7.15;;;;;;;0.81;74.91;94781.47;5086405;28;20031;-75
2023/12/08 05:37:45;;;;;;;10.75;7.13;;;;;;;0.67;74.30;94773.59;5083641;28;20498;-74
2023/12/08 05:40:29;;;;;;;15.77;10.60;;;;;;;0.83;74.80;94787.34;5069580;28;20026;-75
2023/12/08 05:42:55;;;;;;;13.88;9.35;;;;;;;0.91;74.75;94801.53;5087041;28;20028;-75
2023/12/08 05:45:21;;;;;;;12.90;8.05;;;;;;;0.92;74.08;94793.78;5088089;28;20055;-75
2023/12/08 05:47:46;;;;;;;11.52;7.35;;;;;;;0.96;74.41;94799.59;5086845;28;20036;-75
2023/12/08 05:50:12;;;;;;;12.27;8.50;;;;;;;0.73;74.16;94775.88;5117185;27;20020;-73
2023/12/08 05:52:37;;;;;;;22.08;10.38;;;;;;;1.04;73.63;94793.22;5083196;28;20028;-73
2023/12/08 05:55:03;;;;;;;22.77;11.93;;;;;;;1.11;74.03;94801.44;5087242;28;20036;-73
2023/12/08 05:57:28;;;;;;;14.15;7.68;;;;;;;1.14;73.59;94813.25;5086616;28;20118;-73
2023/12/08 05:59:54;;;;;;;10.50;6.43;;;;;;;1.05;73.45;94805.09;5085991;28;20063;-73
2023/12/08 06:02:20;;;;;;;12.07;8.50;;;;;;;1.17;72.81;94810.56;5086048;28;20492;-73
2023/12/08 06:04:45;;;;;;;10.05;7.03;;;;;;;1.20;73.12;94808.69;5086688;28;20036;-73
2023/12/08 06:07:11;;;;;;;10.88;6.93;;;;;;;1.11;73.46;94811.66;5087506;28;20687;-73
2023/12/08 06:09:36;;;;;;;41.97;18.98;;;;;;;0.89;74.18;94810.09;5089340;28;20102;-73
2023/12/08 06:12:02;;;;;;;12.95;8.38;;;;;;;0.88;74.48;94817.84;5065836;28;20056;-73
2023/12/08 06:14:27;;;;;;;26.15;14.55;;;;;;;0.72;73.70;94786.16;5085266;28;20028;-73
2023/12/08 06:16:53;;;;;;;34.22;16.42;;;;;;;1.03;74.03;94822.28;5070454;28;20048;-73
2023/12/08 06:19:18;;;;;;;24.23;12.30;;;;;;;1.14;74.01;94811.53;5068799;28;20021;-73
2023/12/08 06:21:44;;;;;;;40.55;21.40;;;;;;;1.02;73.35;94789.06;5090371;28;20040;-73
2023/12/08 06:24:09;;;;;;;23.10;14.60;;;;;;;1.07;73.45;94812.72;5089243;28;20028;-73
2023/12/08 06:26:38;;;;;;;10.07;7.10;;;;;;;1.09;73.10;94803.25;5089774;28;20036;-73
2023/12/08 06:29:03;;;;;;;11.65;7.32;;;;;;;1.07;73.79;94822.94;5071867;28;20052;-73
2023/12/08 06:31:28;;;;;;;15.23;9.30;;;;;;;1.16;73.92;94811.47;5092536;28;20031;-73
2023/12/08 06:33:54;;;;;;;12.82;8.27;;;;;;;1.05;73.84;94829.84;5092814;28;20035;-73
2023/12/08 06:36:19;;;;;;;12.50;8.18;;;;;;;1.15;73.48;94828.56;5072284;28;20089;-73
2023/12/08 06:38:45;;;;;;;8.25;6.30;;;;;;;0.97;72.96;94817.41;5087221;28;20032;-73
2023/12/08 06:41:11;;;;;;;9.35;6.35;;;;;;;1.10;73.25;94826.19;5088473;28;20020;-73
2023/12/08 06:43:36;;;;;;;9.85;6.70;;;;;;;1.25;73.00;94827.22;5073714;28;20028;-73
2023/12/08 06:46:02;;;;;;;11.45;7.45;;;;;;;1.08;73.25;94833.09;5089545;28;20803;-73
2023/12/08 06:48:27;;;;;;;19.48;12.68;;;;;;;0.89;73.18;94789.63;5070607;28;20119;-73
2023/12/08 06:50:53;;;;;;;15.18;9.65;;;;;;;1.18;72.64;94823.28;5091233;28;20062;-73
2023/12/08 06:53:18;;;;;;;9.68;6.60;;;;;;;0.90;72.80;94818.59;5090051;28;20036;-73
2023/12/08 06:55:44;;;;;;;8.63;6.55;;;;;;;0.88;73.26;94818.66;5089317;28;20035;-73
2023/12/08 06:58:09;;;;;;;10.98;6.72;;;;;;;1.03;73.36;94832.50;5070192;28;20081;-73
2023/12/08 07:00:36;;;;;;;11.90;6.90;;;;;;;0.71;74.10;94826.25;5088192;28;20524;-73
2023/12/08 07:03:01;;;;;;;10.25;7.15;;;;;;;0.75;73.30;94829.50;5088413;28;20082;-73
2023/12/08 07:05:26;;;;;;;10.98;7.82;;;;;;;0.97;73.07;94832.75;5089649;28;20028;-73
2023/12/08 07:07:52;;;;;;;12.80;8.98;;;;;;;0.93;73.32;94830.44;5087904;28;20051;-73
2023/12/08 07:10:17;;;;;;;9.23;6.88;;;;;;;0.93;73.95;94838.09;5105498;28;20028;-74
2023/12/08 07:12:43;;;;;;;10.60;7.50;;;;;;;1.00;73.55;94837.72;5072170;28;20577;-74
2023/12/08 07:15:09;;;;;;;10.18;6.38;;;;;;;1.07;73.10;94834.00;5089585;28;20035;-74
2023/12/08 07:17:35;;;;;;;9.40;6.43;;;;;;;0.94;73.71;94832.91;5071291;28;20032;-74
2023/12/08 07:20:01;;;;;;;9.70;6.63;;;;;;;0.94;73.45;94835.47;5089533;28;20397;-74
2023/12/08 07:22:26;;;;;;;11.05;7.95;;;;;;;0.82;73.29;94834.28;5089164;28;20040;-74
2023/12/08 07:24:51;;;;;;;11.88;8.32;;;;;;;1.05;73.10;94845.22;5063140;28;20051;-74
2023/12/08 07:27:17;;;;;;;12.25;8.85;;;;;;;0.90;73.06;94831.38;5102057;28;20032;-74
2023/12/08 07:29:42;;;;;;;11.13;7.05;;;;;;;0.84;73.38;94829.94;5085987;28;20059;-74
2023/12/08 07:32:08;;;;;;;10.32;6.55;;;;;;;1.01;73.48;94839.41;5092991;28;20031;-75
2023/12/08 07:34:33;;;;;;;9.10;7.50;;;;;;;1.04;73.28;94839.28;5085428;28;20028;-74
2023/12/08 07:36:58;;;;;;;11.50;8.18;;;;;;;1.06;73.46;94841.78;5087526;28;20469;-74
2023/12/08 07:39:24;;;;;;;12.73;7.70;;;;;;;0.70;73.84;94805.84;5087082;28;20065;-74
2023/12/08 07:41:49;;;;;;;11.63;8.02;;;;;;;1.02;73.17;94827.44;5086085;28;20036;-74
2023/12/08 07:44:15;;;;;;;12.07;8.30;;;;;;;1.08;73.86;94845.91;5087919;28;20490;-74
2023/12/08 07:46:40;;;;;;;12.32;8.23;;;;;;;1.04;74.39;94844.38;5072437;28;20153;-74
2023/12/08 07:49:06;;;;;;;12.95;8.75;;;;;;;1.07;73.39;94843.41;5069071;28;20043;-74
2023/12/08 07:51:32;;;;;;;11.20;7.28;;;;;;;1.15;72.98;94846.47;5088433;28;20032;-74
2023/12/08 07:54:00;;;;;;;11.48;7.10;;;;;;;0.98;74.04;94843.84;5088287;28;20028;-74
2023/12/08 07:56:25;;;;;;;13.48;7.68;;;;;;;1.02;73.41;94841.06;5087776;28;20043;-74
2023/12/08 07:58:51;;;;;;;17.15;9.05;;;;;;;1.18;73.00;94851.44;5069211;28;20482;-73
2023/12/08 08:01:16;;;;;;;13.10;8.23;;;;;;;1.25;72.73;94854.53;5070892;28;20478;-74
2023/12/08 08:03:42;;;;;;;10.82;7.53;;;;;;;1.19;73.00;94849.72;5087237;28;20047;-74
2023/12/08 08:06:07;;;;;;;10.30;6.43;;;;;;;0.98;72.51;94808.03;5070826;28;20036;-74
2023/12/08 08:08:35;;;;;;;11.25;7.30;;;;;;;1.33;72.89;94839.66;5068638;28;20035;-74
2023/12/08 08:11:00;;;;;;;12.10;8.30;;;;;;;1.34;72.83;94825.97;5087673;28;20024;-74
2023/12/08 08:13:26;;;;;;;10.27;7.15;;;;;;;1.48;72.18;94836.41;5070998;28;20047;-74
2023/12/08 08:15:51;;;;;;;10.13;7.18;;;;;;;1.32;72.64;94836.28;5089227;28;20020;-74
2023/12/08 08:18:16;;;;;;;11.73;8.18;;;;;;;1.08;73.71;94829.72;5102585;28;20024;-74
2023/12/08 08:20:42;;;;;;;10.10;6.53;;;;;;;1.09;73.04;94823.72;5056227;28;20035;-74
2023/12/08 08:23:07;;;;;;;12.40;7.20;;;;;;;0.89;73.17;94824.59;5086700;28;20480;-74
2023/12/08 08:25:33;;;;;;;13.80;8.13;;;;;;;1.06;73.34;94827.25;5087667;28;20472;-74
2023/12/08 08:28:00;;;;;;;16.52;8.85;;;;;;;1.22;73.17;94822.22;5067794;28;20020;-74
2023/12/08 08:30:26;;;;;;;18.42;9.82;;;;;;;1.34;73.25;94821.69;5068633;28;20082;-74
2023/12/08 08:32:51;;;;;;;14.68;8.32;;;;;;;1.09;72.93;94800.69;5088615;28;20036;-74
2023/12/08 08:35:17;;;;;;;16.08;8.95;;;;;;;1.11;73.32;94811.66;5086426;28;20101;-74
2023/12/08 08:37:42;;;;;;;27.23;14.10;;;;;;;0.95;74.02;94795.34;5084731;28;20024;-74
2023/12/08 08:40:09;;;;;;;25.83;13.43;;;;;;;1.18;72.87;94809.66;5088418;28;20452;-74
2023/12/08 08:42:36;;;;;;;21.13;11.02;;;;;;;1.03;72.66;94781.34;5088639;28;20047;-74
2023/12/08 08:45:02;;;;;;;23.13;13.73;;;;;;;1.06;73.14;94795.72;5086747;28;20119;-71
2023/12/08 08:47:28;;;;;;;23.30;12.43;;;;;;;1.15;71.88;94800.41;5086696;28;20119;-72
2023/12/08 08:49:53;;;;;;;17.85;10.55;;;;;;;1.08;73.21;94786.22;5068627;28;20035;-71
2023/12/08 08:52:19;;;;;;;17.48;11.30;;;;;;;1.00;73.08;94790.84;5087005;28;20054;-77
2023/12/08 08:54:46;;;;;;;18.42;11.00;;;;;;;1.16;72.87;94802.06;5068906;28;20118;-74
2023/12/08 08:57:11;;;;;;;24.98;16.02;;;;;;;0.97;72.89;94780.78;5119854;27;20790;-74
2023/12/08 08:59:37;;;;;;;35.30;17.85;;;;;;;1.17;73.10;94806.28;5085550;28;20043;-70
2023/12/08 09:02:02;;;;;;;47.03;26.17;;;;;;;1.17;72.70;94798.63;5069788;28;20104;-74
2023/12/08 09:04:28;;;;;;;27.85;18.38;;;;;;;1.08;72.58;94773.44;5086308;28;20040;-74
2023/12/08 09:06:56;;;;;;;16.55;9.85;;;;;;;0.90;73.19;94793.03;5085387;28;20032;-75
2023/12/08 09:09:21;;;;;;;11.65;7.63;;;;;;;1.09;72.99;94790.47;5067743;28;20115;-74
2023/12/08 09:11:47;;;;;;;79.88;35.10;;;;;;;1.26;72.92;94787.13;5069123;28;20038;-74
2023/12/08 09:14:12;;;;;;;50.42;26.92;;;;;;;1.27;72.35;94763.16;5120729;27;20028;-73
2023/12/08 09:16:38;;;;;;;51.53;23.48;;;;;;;1.43;71.53;94782.03;5069259;28;20031;-74
2023/12/08 09:19:03;;;;;;;43.83;23.58;;;;;;;1.50;71.20;94774.88;5084446;28;20048;-75
2023/12/08 09:21:29;;;;;;;11.45;8.00;;;;;;;1.39;71.01;94772.81;5089013;28;20486;-75
2023/12/08 09:23:54;;;;;;;24.38;13.00;;;;;;;1.41;71.53;94780.44;5087572;28;20032;-75
2023/12/08 09:26:19;;;;;;;25.13;13.80;;;;;;;1.44;70.95;94776.00;5068512;28;20024;-75
2023/12/08 09:28:46;;;;;;;16.77;10.48;;;;;;;1.46;71.18;94763.13;5083843;28;20036;-72
2023/12/08 09:31:11;;;;;;;13.35;8.55;;;;;;;1.21;70.90;94748.94;5086202;28;20024;-72
2023/12/08 09:33:37;;;;;;;14.52;9.10;;;;;;;1.12;71.95;94762.16;5068686;28;20039;-72
2023/12/08 09:36:03;;;;;;;12.98;7.72;;;;;;;1.16;72.09;94758.56;5085595;28;20035;-72
2023/12/08 09:38:28;;;;;;;17.88;10.15;;;;;;;1.30;72.25;94763.00;5085128;28;20414;-72
2023/12/08 09:40:54;;;;;;;76.40;34.30;;;;;;;1.40;71.65;94745.50;5087381;28;20024;-73
2023/12/08 09:43:27;;;;;;;16.80;9.50;;;;;;;1.42;71.76;94736.00;5086682;28;20025;-77
2023/12/08 09:45:53;;;;;;;13.20;8.50;;;;;;;1.44;71.25;94755.50;5069410;28;20111;-73
2023/12/08 09:48:18;;;;;;;15.98;9.27;;;;;;;1.44;70.76;94729.09;5084075;28;20107;-73
2023/12/08 09:50:44;;;;;;;13.82;8.68;;;;;;;1.64;70.31;94751.97;5067691;28;20120;-72
2023/12/08 09:53:09;;;;;;;32.08;15.07;;;;;;;1.60;70.71;94740.25;5068968;28;20028;-73
2023/12/08 09:55:35;;;;;;;16.98;9.60;;;;;;;1.46;70.39;94743.47;5085038;28;20035;-73
2023/12/08 09:58:01;;;;;;;13.50;7.70;;;;;;;1.52;70.01;94719.28;5082410;28;20032;-72
2023/12/08 10:00:32;;;;;;;97.22;39.22;;;;;;;1.79;70.52;94741.00;5082207;28;20051;-75
2023/12/08 10:02:59;;;;;;;118.75;47.33;;;;;;;1.79;69.85;94741.00;5069298;28;20490;-73
2023/12/08 10:05:24;;;;;;;12.20;8.27;;;;;;;1.52;70.32;94740.59;5085941;28;20217;-72
2023/12/08 10:07:50;;;;;;;12.73;8.55;;;;;;;1.32;70.82;94733.88;5068659;28;20047;-76
2023/12/08 10:10:16;;;;;;;36.42;17.50;;;;;;;1.52;70.25;94719.28;5092228;28;20051;-72
2023/12/08 10:12:41;;;;;;;56.30;25.50;;;;;;;1.73;69.92;94715.69;5089418;28;20028;-73
2023/12/08 10:15:13;;;;;;;17.27;9.13;;;;;;;1.59;70.45;94707.88;5072944;28;20038;-72
2023/12/08 10:17:51;;;;;;;9.05;6.43;;;;;;;1.09;70.85;94703.47;5104619;27;20028;-73
2023/12/08 10:20:18;;;;;;;47.75;22.33;;;;;;;1.28;70.67;94709.34;5090735;28;20028;-73
2023/12/08 10:22:53;;;;;;;30.83;14.60;;;;;;;1.47;70.43;94711.00;5068709;28;20503;-78
2023/12/08 10:25:21;;;;;;;17.55;10.15;;;;;;;1.49;70.24;94714.31;5072928;28;20421;-79
2023/12/08 10:27:47;;;;;;;11.20;7.18;;;;;;;1.34;70.16;94716.72;5070461;28;20117;-77
2023/12/08 10:30:14;;;;;;;12.68;7.72;;;;;;;1.14;70.87;94698.09;5089828;28;20155;-77
2023/12/08 10:32:39;;;;;;;11.00;6.78;;;;;;;1.49;70.20;94711.78;5072905;28;20032;-73
2023/12/08 10:35:05;;;;;;;14.50;8.73;;;;;;;1.44;70.58;94717.09;5089076;28;20024;-73
2023/12/08 10:37:31;;;;;;;11.55;7.80;;;;;;;1.42;70.67;94718.94;5084850;28;20085;-72
2023/12/08 10:39:56;;;;;;;11.85;7.47;;;;;;;1.65;70.14;94717.78;5090890;28;20028;-74
2023/12/08 10:42:23;;;;;;;11.38;6.90;;;;;;;1.76;69.07;94709.59;5087341;28;20032;-74
2023/12/08 10:44:49;;;;;;;16.98;10.90;;;;;;;1.66;69.24;94708.38;5086464;28;20028;-74
2023/12/08 10:47:15;;;;;;;14.90;9.75;;;;;;;1.75;69.15;94703.59;5088101;28;20020;-74
2023/12/08 10:49:41;;;;;;;46.08;23.25;;;;;;;1.73;70.10;94702.88;5053834;28;20035;-75
2023/12/08 10:52:06;;;;;;;19.42;10.55;;;;;;;1.65;70.16;94701.59;5077014;28;20032;-74
2023/12/08 10:54:32;;;;;;;27.15;16.10;;;;;;;1.78;70.09;94703.47;5072308;28;20401;-74
2023/12/08 10:56:57;;;;;;;22.45;12.30;;;;;;;1.56;70.47;94700.31;5078015;28;20226;-74
2023/12/08 10:59:24;;;;;;;17.48;11.02;;;;;;;1.77;70.13;94698.44;5053304;28;20473;-74
2023/12/08 11:01:50;;;;;;;17.70;10.63;;;;;;;1.77;70.25;94691.56;5055515;28;20024;-74
2023/12/08 11:04:21;;;;;;;15.02;8.60;;;;;;;1.66;70.35;94696.41;5054377;28;20047;-74
2023/12/08 11:06:53;;;;;;;13.32;9.23;;;;;;;1.46;70.29;94671.78;5070068;28;20115;-74
2023/12/08 11:09:20;;;;;;;13.07;8.13;;;;;;;1.68;69.45;94684.34;5068808;28;20028;-74
2023/12/08 11:11:52;;;;;;;16.65;10.48;;;;;;;1.92;69.31;94689.13;5073902;28;20536;-75
2023/12/08 11:14:40;;;;;;;15.35;9.25;;;;;;;1.86;69.83;94684.31;5069863;28;20028;-74
2023/12/08 11:17:33;;;;;;;17.02;10.73;;;;;;;1.81;70.13;94686.28;5069427;28;20024;-74
2023/12/08 11:19:58;;;;;;;12.95;8.80;;;;;;;1.77;70.02;94690.75;5121278;27;20517;-75
2023/12/08 11:22:24;;;;;;;27.65;14.85;;;;;;;1.60;70.49;94683.91;5086864;28;20036;-75
2023/12/08 11:24:49;;;;;;;15.93;10.45;;;;;;;1.70;69.98;94690.22;5088332;28;20031;-75
2023/12/08 11:28:04;;;;;;;12.20;8.60;;;;;;;1.59;70.73;94684.81;5074781;28;20089;-74
2023/12/08 11:30:39;;;;;;;15.48;9.40;;;;;;;1.51;71.16;94677.50;5075801;28;20085;-76